sensor_id;sensor_type;location;lat;lon;timestamp;P1;durP1;ratioP1;P2;durP2;ratioP2
11671;SDS011;5892;43.412;24.612;2023-03-19T00:00:20;15.80;;;9.17;;
11671;SDS011;5892;43.412;24.612;2023-03-19T00:02:47;12.77;;;9.10;;
11671;SDS011;5892;43.412;24.612;2023-03-19T00:05:16;16.50;;;10.03;;
11671;SDS011;5892;43.412;24.612;2023-03-19T00:07:43;16.20;;;9.20;;
11671;SDS011;5892;43.412;24.612;2023-03-19T00:10:11;12.23;;;9.60;;
11671;SDS011;5892;43.412;24.612;2023-03-19T00:12:39;16.33;;;9.30;;
11671;SDS011;5892;43.412;24.612;2023-03-19T00:15:08;16.30;;;9.50;;
11671;SDS011;5892;43.412;24.612;2023-03-19T00:17:38;14.43;;;9.67;;
11671;SDS011;5892;43.412;24.612;2023-03-19T00:20:06;13.77;;;8.77;;
11671;SDS011;5892;43.412;24.612;2023-03-19T00:22:34;16.93;;;9.37;;
11671;SDS011;5892;43.412;24.612;2023-03-19T00:25:02;14.70;;;9.50;;
11671;SDS011;5892;43.412;24.612;2023-03-19T00:27:31;16.43;;;10.43;;
11671;SDS011;5892;43.412;24.612;2023-03-19T00:29:58;25.70;;;13.47;;
11671;SDS011;5892;43.412;24.612;2023-03-19T00:32:28;21.67;;;13.00;;
11671;SDS011;5892;43.412;24.612;2023-03-19T00:34:55;16.73;;;10.17;;
11671;SDS011;5892;43.412;24.612;2023-03-19T00:37:22;17.03;;;10.23;;
11671;SDS011;5892;43.412;24.612;2023-03-19T00:39:49;13.77;;;9.90;;
11671;SDS011;5892;43.412;24.612;2023-03-19T00:42:16;18.47;;;11.53;;
11671;SDS011;5892;43.412;24.612;2023-03-19T00:44:44;16.33;;;10.40;;
11671;SDS011;5892;43.412;24.612;2023-03-19T00:47:10;15.13;;;10.83;;
11671;SDS011;5892;43.412;24.612;2023-03-19T00:49:39;17.23;;;11.53;;
11671;SDS011;5892;43.412;24.612;2023-03-19T00:52:06;19.23;;;12.07;;
11671;SDS011;5892;43.412;24.612;2023-03-19T00:54:33;18.07;;;12.20;;
11671;SDS011;5892;43.412;24.612;2023-03-19T00:57:00;19.30;;;13.20;;
11671;SDS011;5892;43.412;24.612;2023-03-19T00:59:27;21.93;;;14.63;;
11671;SDS011;5892;43.412;24.612;2023-03-19T01:01:54;22.13;;;14.97;;
11671;SDS011;5892;43.412;24.612;2023-03-19T01:04:21;26.23;;;14.63;;
11671;SDS011;5892;43.412;24.612;2023-03-19T01:06:50;22.30;;;15.20;;
11671;SDS011;5892;43.412;24.612;2023-03-19T01:09:18;22.60;;;14.13;;
11671;SDS011;5892;43.412;24.612;2023-03-19T01:11:46;19.23;;;14.23;;
11671;SDS011;5892;43.412;24.612;2023-03-19T01:14:14;18.57;;;13.17;;
11671;SDS011;5892;43.412;24.612;2023-03-19T01:16:41;19.77;;;13.80;;
11671;SDS011;5892;43.412;24.612;2023-03-19T01:19:08;21.80;;;13.10;;
11671;SDS011;5892;43.412;24.612;2023-03-19T01:21:36;19.00;;;13.87;;
11671;SDS011;5892;43.412;24.612;2023-03-19T01:24:04;24.17;;;15.10;;
11671;SDS011;5892;43.412;24.612;2023-03-19T01:26:31;17.93;;;14.00;;
11671;SDS011;5892;43.412;24.612;2023-03-19T01:28:58;22.23;;;15.37;;
11671;SDS011;5892;43.412;24.612;2023-03-19T01:31:25;20.80;;;15.40;;
11671;SDS011;5892;43.412;24.612;2023-03-19T01:33:52;23.23;;;15.93;;
11671;SDS011;5892;43.412;24.612;2023-03-19T01:36:21;21.83;;;15.27;;
11671;SDS011;5892;43.412;24.612;2023-03-19T01:38:49;22.10;;;16.10;;
11671;SDS011;5892;43.412;24.612;2023-03-19T01:41:17;22.90;;;15.57;;
11671;SDS011;5892;43.412;24.612;2023-03-19T01:43:44;23.00;;;15.40;;
11671;SDS011;5892;43.412;24.612;2023-03-19T01:46:13;21.40;;;15.30;;
11671;SDS011;5892;43.412;24.612;2023-03-19T01:48:48;22.20;;;15.43;;
11671;SDS011;5892;43.412;24.612;2023-03-19T01:51:19;20.60;;;14.67;;
11671;SDS011;5892;43.412;24.612;2023-03-19T01:53:51;22.87;;;14.47;;
11671;SDS011;5892;43.412;24.612;2023-03-19T01:56:23;19.80;;;13.97;;
11671;SDS011;5892;43.412;24.612;2023-03-19T01:58:56;19.50;;;14.57;;
11671;SDS011;5892;43.412;24.612;2023-03-19T02:01:28;22.17;;;15.43;;
11671;SDS011;5892;43.412;24.612;2023-03-19T02:03:58;21.07;;;15.47;;
11671;SDS011;5892;43.412;24.612;2023-03-19T02:06:25;22.10;;;15.43;;
11671;SDS011;5892;43.412;24.612;2023-03-19T02:08:55;25.43;;;15.10;;
11671;SDS011;5892;43.412;24.612;2023-03-19T02:11:24;22.77;;;15.17;;
11671;SDS011;5892;43.412;24.612;2023-03-19T02:13:52;18.70;;;14.87;;
11671;SDS011;5892;43.412;24.612;2023-03-19T02:16:19;23.97;;;15.53;;
11671;SDS011;5892;43.412;24.612;2023-03-19T02:18:45;20.67;;;14.30;;
11671;SDS011;5892;43.412;24.612;2023-03-19T02:21:14;18.67;;;11.83;;
11671;SDS011;5892;43.412;24.612;2023-03-19T02:23:44;15.73;;;11.60;;
11671;SDS011;5892;43.412;24.612;2023-03-19T02:26:18;14.47;;;8.80;;
11671;SDS011;5892;43.412;24.612;2023-03-19T02:28:47;13.10;;;8.70;;
11671;SDS011;5892;43.412;24.612;2023-03-19T02:31:15;20.03;;;8.17;;
11671;SDS011;5892;43.412;24.612;2023-03-19T02:33:43;12.87;;;8.40;;
11671;SDS011;5892;43.412;24.612;2023-03-19T02:36:12;13.17;;;8.37;;
11671;SDS011;5892;43.412;24.612;2023-03-19T02:38:42;12.73;;;8.60;;
11671;SDS011;5892;43.412;24.612;2023-03-19T02:41:10;11.70;;;8.30;;
11671;SDS011;5892;43.412;24.612;2023-03-19T02:43:40;12.07;;;7.97;;
11671;SDS011;5892;43.412;24.612;2023-03-19T02:46:08;11.43;;;7.80;;
11671;SDS011;5892;43.412;24.612;2023-03-19T02:48:37;13.83;;;8.67;;
11671;SDS011;5892;43.412;24.612;2023-03-19T02:51:05;12.97;;;8.93;;
11671;SDS011;5892;43.412;24.612;2023-03-19T02:53:32;11.37;;;9.23;;
11671;SDS011;5892;43.412;24.612;2023-03-19T02:56:00;12.87;;;9.70;;
11671;SDS011;5892;43.412;24.612;2023-03-19T02:58:27;16.37;;;10.03;;
11671;SDS011;5892;43.412;24.612;2023-03-19T03:00:55;12.90;;;8.57;;
11671;SDS011;5892;43.412;24.612;2023-03-19T03:03:22;12.53;;;9.03;;
11671;SDS011;5892;43.412;24.612;2023-03-19T03:05:49;13.07;;;8.67;;
11671;SDS011;5892;43.412;24.612;2023-03-19T03:08:16;12.90;;;9.83;;
11671;SDS011;5892;43.412;24.612;2023-03-19T03:10:42;14.90;;;9.40;;
11671;SDS011;5892;43.412;24.612;2023-03-19T03:13:09;12.87;;;8.97;;
11671;SDS011;5892;43.412;24.612;2023-03-19T03:15:36;11.40;;;8.70;;
11671;SDS011;5892;43.412;24.612;2023-03-19T03:18:04;12.97;;;9.60;;
11671;SDS011;5892;43.412;24.612;2023-03-19T03:20:31;13.13;;;9.20;;
11671;SDS011;5892;43.412;24.612;2023-03-19T03:22:59;12.23;;;9.30;;
11671;SDS011;5892;43.412;24.612;2023-03-19T03:25:26;13.63;;;8.97;;
11671;SDS011;5892;43.412;24.612;2023-03-19T03:27:54;16.33;;;10.90;;
11671;SDS011;5892;43.412;24.612;2023-03-19T03:30:21;16.87;;;11.77;;
11671;SDS011;5892;43.412;24.612;2023-03-19T03:32:48;18.13;;;12.23;;
11671;SDS011;5892;43.412;24.612;2023-03-19T03:35:17;16.13;;;11.37;;
11671;SDS011;5892;43.412;24.612;2023-03-19T03:37:46;16.43;;;12.33;;
11671;SDS011;5892;43.412;24.612;2023-03-19T03:40:14;18.13;;;12.23;;
11671;SDS011;5892;43.412;24.612;2023-03-19T03:42:41;20.57;;;14.67;;
11671;SDS011;5892;43.412;24.612;2023-03-19T03:45:09;26.53;;;15.00;;
11671;SDS011;5892;43.412;24.612;2023-03-19T03:47:37;19.63;;;12.93;;
11671;SDS011;5892;43.412;24.612;2023-03-19T03:50:05;22.77;;;15.17;;
11671;SDS011;5892;43.412;24.612;2023-03-19T03:52:36;22.80;;;15.87;;
11671;SDS011;5892;43.412;24.612;2023-03-19T03:55:06;21.50;;;14.90;;
11671;SDS011;5892;43.412;24.612;2023-03-19T03:57:34;24.23;;;15.53;;
11671;SDS011;5892;43.412;24.612;2023-03-19T04:00:02;22.77;;;15.20;;
11671;SDS011;5892;43.412;24.612;2023-03-19T04:02:30;24.03;;;15.60;;
11671;SDS011;5892;43.412;24.612;2023-03-19T04:04:56;25.87;;;14.80;;
11671;SDS011;5892;43.412;24.612;2023-03-19T04:07:23;20.30;;;14.07;;
11671;SDS011;5892;43.412;24.612;2023-03-19T04:09:52;16.70;;;12.43;;
11671;SDS011;5892;43.412;24.612;2023-03-19T04:12:19;17.83;;;13.10;;
11671;SDS011;5892;43.412;24.612;2023-03-19T04:14:46;18.53;;;13.00;;
11671;SDS011;5892;43.412;24.612;2023-03-19T04:17:13;20.23;;;13.97;;
11671;SDS011;5892;43.412;24.612;2023-03-19T04:19:41;21.13;;;14.37;;
11671;SDS011;5892;43.412;24.612;2023-03-19T04:22:08;23.57;;;14.83;;
11671;SDS011;5892;43.412;24.612;2023-03-19T04:24:35;20.43;;;15.23;;
11671;SDS011;5892;43.412;24.612;2023-03-19T04:27:07;19.70;;;13.97;;
11671;SDS011;5892;43.412;24.612;2023-03-19T04:29:33;21.37;;;12.10;;
11671;SDS011;5892;43.412;24.612;2023-03-19T04:32:00;18.87;;;12.80;;
11671;SDS011;5892;43.412;24.612;2023-03-19T04:34:27;22.87;;;12.73;;
11671;SDS011;5892;43.412;24.612;2023-03-19T04:36:55;24.13;;;13.80;;
11671;SDS011;5892;43.412;24.612;2023-03-19T04:39:34;17.20;;;9.23;;
11671;SDS011;5892;43.412;24.612;2023-03-19T04:42:01;12.83;;;8.33;;
11671;SDS011;5892;43.412;24.612;2023-03-19T04:44:30;10.73;;;8.20;;
11671;SDS011;5892;43.412;24.612;2023-03-19T04:47:01;9.47;;;7.70;;
11671;SDS011;5892;43.412;24.612;2023-03-19T04:49:28;15.33;;;9.57;;
11671;SDS011;5892;43.412;24.612;2023-03-19T04:51:56;12.27;;;8.90;;
11671;SDS011;5892;43.412;24.612;2023-03-19T04:54:23;15.27;;;8.90;;
11671;SDS011;5892;43.412;24.612;2023-03-19T04:56:50;14.07;;;9.13;;
11671;SDS011;5892;43.412;24.612;2023-03-19T04:59:18;12.00;;;8.50;;
11671;SDS011;5892;43.412;24.612;2023-03-19T05:01:46;16.33;;;7.93;;
11671;SDS011;5892;43.412;24.612;2023-03-19T05:04:13;10.97;;;8.23;;
11671;SDS011;5892;43.412;24.612;2023-03-19T05:06:40;14.93;;;11.10;;
11671;SDS011;5892;43.412;24.612;2023-03-19T05:09:07;14.10;;;9.17;;
11671;SDS011;5892;43.412;24.612;2023-03-19T05:11:37;16.40;;;9.17;;
11671;SDS011;5892;43.412;24.612;2023-03-19T05:14:04;9.07;;;7.00;;
11671;SDS011;5892;43.412;24.612;2023-03-19T05:16:31;16.37;;;7.37;;
11671;SDS011;5892;43.412;24.612;2023-03-19T05:19:01;8.13;;;6.23;;
11671;SDS011;5892;43.412;24.612;2023-03-19T05:21:27;9.23;;;7.17;;
11671;SDS011;5892;43.412;24.612;2023-03-19T05:23:54;14.33;;;7.77;;
11671;SDS011;5892;43.412;24.612;2023-03-19T05:26:21;14.90;;;9.80;;
11671;SDS011;5892;43.412;24.612;2023-03-19T05:28:48;11.30;;;8.23;;
11671;SDS011;5892;43.412;24.612;2023-03-19T05:31:15;9.70;;;7.40;;
11671;SDS011;5892;43.412;24.612;2023-03-19T05:33:42;9.67;;;6.93;;
11671;SDS011;5892;43.412;24.612;2023-03-19T05:36:10;10.83;;;7.20;;
11671;SDS011;5892;43.412;24.612;2023-03-19T05:38:37;10.07;;;6.30;;
11671;SDS011;5892;43.412;24.612;2023-03-19T05:41:04;7.17;;;6.20;;
11671;SDS011;5892;43.412;24.612;2023-03-19T05:43:32;8.53;;;6.63;;
11671;SDS011;5892;43.412;24.612;2023-03-19T05:45:59;13.27;;;7.00;;
11671;SDS011;5892;43.412;24.612;2023-03-19T05:48:27;13.27;;;6.60;;
11671;SDS011;5892;43.412;24.612;2023-03-19T05:50:54;7.17;;;5.50;;
11671;SDS011;5892;43.412;24.612;2023-03-19T05:53:24;11.43;;;7.27;;
11671;SDS011;5892;43.412;24.612;2023-03-19T05:55:51;8.77;;;6.40;;
11671;SDS011;5892;43.412;24.612;2023-03-19T05:58:18;9.30;;;6.23;;
11671;SDS011;5892;43.412;24.612;2023-03-19T06:00:49;11.80;;;6.43;;
11671;SDS011;5892;43.412;24.612;2023-03-19T06:03:16;18.90;;;7.43;;
11671;SDS011;5892;43.412;24.612;2023-03-19T06:05:44;10.27;;;6.80;;
11671;SDS011;5892;43.412;24.612;2023-03-19T06:08:14;10.50;;;6.77;;
11671;SDS011;5892;43.412;24.612;2023-03-19T06:10:42;10.77;;;6.80;;
11671;SDS011;5892;43.412;24.612;2023-03-19T06:13:09;8.80;;;6.80;;
11671;SDS011;5892;43.412;24.612;2023-03-19T06:15:36;8.63;;;6.67;;
11671;SDS011;5892;43.412;24.612;2023-03-19T06:18:05;8.63;;;6.73;;
11671;SDS011;5892;43.412;24.612;2023-03-19T06:20:32;9.33;;;7.23;;
11671;SDS011;5892;43.412;24.612;2023-03-19T06:23:01;10.90;;;8.03;;
11671;SDS011;5892;43.412;24.612;2023-03-19T06:25:28;14.27;;;7.33;;
11671;SDS011;5892;43.412;24.612;2023-03-19T06:27:57;9.60;;;7.93;;
11671;SDS011;5892;43.412;24.612;2023-03-19T06:30:24;9.77;;;6.50;;
11671;SDS011;5892;43.412;24.612;2023-03-19T06:32:51;10.13;;;6.87;;
11671;SDS011;5892;43.412;24.612;2023-03-19T06:35:18;12.97;;;7.67;;
11671;SDS011;5892;43.412;24.612;2023-03-19T06:37:45;11.33;;;8.30;;
11671;SDS011;5892;43.412;24.612;2023-03-19T06:40:13;11.73;;;8.37;;
11671;SDS011;5892;43.412;24.612;2023-03-19T06:42:43;13.90;;;9.03;;
11671;SDS011;5892;43.412;24.612;2023-03-19T06:45:12;14.07;;;7.90;;
11671;SDS011;5892;43.412;24.612;2023-03-19T06:47:40;13.03;;;8.70;;
11671;SDS011;5892;43.412;24.612;2023-03-19T06:50:08;12.63;;;8.50;;
11671;SDS011;5892;43.412;24.612;2023-03-19T06:52:36;14.27;;;9.23;;
11671;SDS011;5892;43.412;24.612;2023-03-19T06:55:03;11.70;;;9.17;;
11671;SDS011;5892;43.412;24.612;2023-03-19T06:57:30;12.20;;;9.90;;
11671;SDS011;5892;43.412;24.612;2023-03-19T06:59:57;12.17;;;9.80;;
11671;SDS011;5892;43.412;24.612;2023-03-19T07:02:25;14.50;;;9.80;;
11671;SDS011;5892;43.412;24.612;2023-03-19T07:04:54;15.33;;;9.57;;
11671;SDS011;5892;43.412;24.612;2023-03-19T07:07:21;11.80;;;8.50;;
11671;SDS011;5892;43.412;24.612;2023-03-19T07:09:48;9.80;;;8.00;;
11671;SDS011;5892;43.412;24.612;2023-03-19T07:12:15;10.13;;;7.87;;
11671;SDS011;5892;43.412;24.612;2023-03-19T07:14:43;12.07;;;7.90;;
11671;SDS011;5892;43.412;24.612;2023-03-19T07:17:11;11.07;;;8.53;;
11671;SDS011;5892;43.412;24.612;2023-03-19T07:19:39;10.97;;;8.70;;
11671;SDS011;5892;43.412;24.612;2023-03-19T07:22:07;12.73;;;8.90;;
11671;SDS011;5892;43.412;24.612;2023-03-19T07:24:34;11.77;;;8.80;;
11671;SDS011;5892;43.412;24.612;2023-03-19T07:27:01;9.20;;;8.17;;
11671;SDS011;5892;43.412;24.612;2023-03-19T07:29:28;10.87;;;8.57;;
11671;SDS011;5892;43.412;24.612;2023-03-19T07:31:55;11.73;;;8.97;;
11671;SDS011;5892;43.412;24.612;2023-03-19T07:34:22;11.90;;;9.30;;
11671;SDS011;5892;43.412;24.612;2023-03-19T07:36:51;10.60;;;8.73;;
11671;SDS011;5892;43.412;24.612;2023-03-19T07:39:19;10.03;;;8.63;;
11671;SDS011;5892;43.412;24.612;2023-03-19T07:41:46;10.37;;;7.70;;
11671;SDS011;5892;43.412;24.612;2023-03-19T07:44:13;11.17;;;8.33;;
11671;SDS011;5892;43.412;24.612;2023-03-19T07:46:40;9.17;;;8.20;;
11671;SDS011;5892;43.412;24.612;2023-03-19T07:49:08;11.03;;;8.33;;
11671;SDS011;5892;43.412;24.612;2023-03-19T07:51:35;9.67;;;8.07;;
11671;SDS011;5892;43.412;24.612;2023-03-19T07:54:03;10.07;;;8.07;;
11671;SDS011;5892;43.412;24.612;2023-03-19T07:56:30;8.50;;;7.60;;
11671;SDS011;5892;43.412;24.612;2023-03-19T07:58:57;8.67;;;7.43;;
11671;SDS011;5892;43.412;24.612;2023-03-19T08:01:25;8.93;;;6.63;;
11671;SDS011;5892;43.412;24.612;2023-03-19T08:03:52;7.67;;;6.50;;
11671;SDS011;5892;43.412;24.612;2023-03-19T08:06:18;12.90;;;7.20;;
11671;SDS011;5892;43.412;24.612;2023-03-19T08:08:46;8.43;;;6.40;;
11671;SDS011;5892;43.412;24.612;2023-03-19T08:11:14;8.37;;;5.77;;
11671;SDS011;5892;43.412;24.612;2023-03-19T08:13:41;8.27;;;6.40;;
11671;SDS011;5892;43.412;24.612;2023-03-19T08:16:08;6.87;;;6.17;;
11671;SDS011;5892;43.412;24.612;2023-03-19T08:18:36;9.73;;;6.43;;
11671;SDS011;5892;43.412;24.612;2023-03-19T08:21:03;7.87;;;6.50;;
11671;SDS011;5892;43.412;24.612;2023-03-19T08:23:30;7.97;;;6.40;;
11671;SDS011;5892;43.412;24.612;2023-03-19T08:25:57;6.93;;;6.23;;
11671;SDS011;5892;43.412;24.612;2023-03-19T08:28:26;9.33;;;7.00;;
11671;SDS011;5892;43.412;24.612;2023-03-19T08:30:53;8.63;;;6.40;;
11671;SDS011;5892;43.412;24.612;2023-03-19T08:33:20;8.63;;;6.33;;
11671;SDS011;5892;43.412;24.612;2023-03-19T08:35:47;9.17;;;6.57;;
11671;SDS011;5892;43.412;24.612;2023-03-19T08:38:14;8.23;;;6.13;;
11671;SDS011;5892;43.412;24.612;2023-03-19T08:40:41;7.57;;;6.30;;
11671;SDS011;5892;43.412;24.612;2023-03-19T08:43:08;10.53;;;6.87;;
11671;SDS011;5892;43.412;24.612;2023-03-19T08:45:36;8.07;;;6.53;;
11671;SDS011;5892;43.412;24.612;2023-03-19T08:48:03;6.93;;;5.97;;
11671;SDS011;5892;43.412;24.612;2023-03-19T08:50:31;7.53;;;6.70;;
11671;SDS011;5892;43.412;24.612;2023-03-19T08:52:58;9.30;;;6.40;;
11671;SDS011;5892;43.412;24.612;2023-03-19T08:55:25;9.87;;;6.17;;
11671;SDS011;5892;43.412;24.612;2023-03-19T08:57:54;9.33;;;6.53;;
11671;SDS011;5892;43.412;24.612;2023-03-19T09:00:23;8.40;;;6.70;;
11671;SDS011;5892;43.412;24.612;2023-03-19T09:02:53;8.77;;;6.53;;
11671;SDS011;5892;43.412;24.612;2023-03-19T09:05:20;8.07;;;6.60;;
11671;SDS011;5892;43.412;24.612;2023-03-19T09:07:49;9.23;;;6.67;;
11671;SDS011;5892;43.412;24.612;2023-03-19T09:10:16;9.93;;;7.40;;
11671;SDS011;5892;43.412;24.612;2023-03-19T09:12:44;8.03;;;6.30;;
11671;SDS011;5892;43.412;24.612;2023-03-19T09:15:11;9.20;;;6.90;;
11671;SDS011;5892;43.412;24.612;2023-03-19T09:17:40;7.77;;;6.47;;
11671;SDS011;5892;43.412;24.612;2023-03-19T09:20:10;7.80;;;6.30;;
11671;SDS011;5892;43.412;24.612;2023-03-19T09:22:38;8.67;;;5.90;;
11671;SDS011;5892;43.412;24.612;2023-03-19T09:25:06;11.23;;;7.30;;
11671;SDS011;5892;43.412;24.612;2023-03-19T09:27:35;10.40;;;6.73;;
11671;SDS011;5892;43.412;24.612;2023-03-19T09:30:04;8.87;;;6.53;;
11671;SDS011;5892;43.412;24.612;2023-03-19T09:32:34;11.70;;;7.03;;
11671;SDS011;5892;43.412;24.612;2023-03-19T09:35:04;7.63;;;5.47;;
11671;SDS011;5892;43.412;24.612;2023-03-19T09:37:34;6.67;;;5.97;;
11671;SDS011;5892;43.412;24.612;2023-03-19T09:40:01;6.60;;;5.70;;
11671;SDS011;5892;43.412;24.612;2023-03-19T09:42:35;10.10;;;6.10;;
11671;SDS011;5892;43.412;24.612;2023-03-19T09:45:14;6.97;;;5.27;;
11671;SDS011;5892;43.412;24.612;2023-03-19T09:47:43;6.00;;;5.10;;
11671;SDS011;5892;43.412;24.612;2023-03-19T09:50:12;6.17;;;5.57;;
11671;SDS011;5892;43.412;24.612;2023-03-19T09:52:43;6.47;;;5.27;;
11671;SDS011;5892;43.412;24.612;2023-03-19T09:55:17;7.53;;;5.60;;
11671;SDS011;5892;43.412;24.612;2023-03-19T09:57:54;7.90;;;5.53;;
11671;SDS011;5892;43.412;24.612;2023-03-19T10:00:25;7.03;;;5.67;;
11671;SDS011;5892;43.412;24.612;2023-03-19T10:03:04;7.63;;;5.93;;
11671;SDS011;5892;43.412;24.612;2023-03-19T10:05:41;7.63;;;5.87;;
11671;SDS011;5892;43.412;24.612;2023-03-19T10:08:29;8.57;;;6.03;;
11671;SDS011;5892;43.412;24.612;2023-03-19T10:11:23;8.33;;;5.70;;
11671;SDS011;5892;43.412;24.612;2023-03-19T10:14:07;7.37;;;5.27;;
11671;SDS011;5892;43.412;24.612;2023-03-19T10:16:45;6.13;;;5.30;;
11671;SDS011;5892;43.412;24.612;2023-03-19T10:19:20;6.70;;;5.20;;
11671;SDS011;5892;43.412;24.612;2023-03-19T10:21:57;5.53;;;4.80;;
11671;SDS011;5892;43.412;24.612;2023-03-19T10:24:31;6.80;;;5.43;;
11671;SDS011;5892;43.412;24.612;2023-03-19T10:27:06;6.23;;;5.40;;
11671;SDS011;5892;43.412;24.612;2023-03-19T10:29:38;5.90;;;5.27;;
11671;SDS011;5892;43.412;24.612;2023-03-19T10:32:11;6.60;;;5.30;;
11671;SDS011;5892;43.412;24.612;2023-03-19T10:37:44;6.17;;;4.90;;
11671;SDS011;5892;43.412;24.612;2023-03-19T10:40:33;5.77;;;4.83;;
11671;SDS011;5892;43.412;24.612;2023-03-19T10:43:11;7.97;;;5.70;;
11671;SDS011;5892;43.412;24.612;2023-03-19T10:45:43;6.80;;;5.10;;
11671;SDS011;5892;43.412;24.612;2023-03-19T10:48:13;7.40;;;5.10;;
11671;SDS011;5892;43.412;24.612;2023-03-19T10:51:04;7.87;;;6.03;;
11671;SDS011;5892;43.412;24.612;2023-03-19T10:53:32;5.77;;;4.97;;
11671;SDS011;5892;43.412;24.612;2023-03-19T10:56:03;7.20;;;4.83;;
11671;SDS011;5892;43.412;24.612;2023-03-19T10:58:32;5.30;;;4.47;;
11671;SDS011;5892;43.412;24.612;2023-03-19T11:01:19;11.63;;;7.27;;
11671;SDS011;5892;43.412;24.612;2023-03-19T11:03:49;6.37;;;5.10;;
11671;SDS011;5892;43.412;24.612;2023-03-19T11:06:18;7.07;;;5.53;;
11671;SDS011;5892;43.412;24.612;2023-03-19T11:08:51;6.70;;;5.13;;
11671;SDS011;5892;43.412;24.612;2023-03-19T11:11:25;7.80;;;5.13;;
11671;SDS011;5892;43.412;24.612;2023-03-19T11:14:04;7.77;;;5.50;;
11671;SDS011;5892;43.412;24.612;2023-03-19T11:19:21;6.60;;;5.10;;
11671;SDS011;5892;43.412;24.612;2023-03-19T11:22:07;6.23;;;4.80;;
11671;SDS011;5892;43.412;24.612;2023-03-19T11:24:51;6.47;;;4.73;;
11671;SDS011;5892;43.412;24.612;2023-03-19T11:27:30;6.13;;;4.80;;
11671;SDS011;5892;43.412;24.612;2023-03-19T11:30:00;6.10;;;4.93;;
11671;SDS011;5892;43.412;24.612;2023-03-19T11:32:54;5.33;;;4.83;;
11671;SDS011;5892;43.412;24.612;2023-03-19T11:35:41;5.23;;;4.73;;
11671;SDS011;5892;43.412;24.612;2023-03-19T11:38:17;4.87;;;4.23;;
11671;SDS011;5892;43.412;24.612;2023-03-19T11:40:55;4.63;;;4.23;;
11671;SDS011;5892;43.412;24.612;2023-03-19T11:43:41;6.23;;;5.07;;
11671;SDS011;5892;43.412;24.612;2023-03-19T11:49:35;5.40;;;4.50;;
11671;SDS011;5892;43.412;24.612;2023-03-19T11:52:28;4.87;;;4.33;;
11671;SDS011;5892;43.412;24.612;2023-03-19T11:55:15;4.77;;;3.70;;
11671;SDS011;5892;43.412;24.612;2023-03-19T11:57:52;5.43;;;4.50;;
11671;SDS011;5892;43.412;24.612;2023-03-19T12:00:30;5.47;;;4.50;;
11671;SDS011;5892;43.412;24.612;2023-03-19T12:03:22;4.80;;;4.30;;
11671;SDS011;5892;43.412;24.612;2023-03-19T12:06:02;5.70;;;4.33;;
11671;SDS011;5892;43.412;24.612;2023-03-19T12:08:36;5.13;;;4.10;;
11671;SDS011;5892;43.412;24.612;2023-03-19T12:11:19;4.73;;;4.10;;
11671;SDS011;5892;43.412;24.612;2023-03-19T12:16:49;6.17;;;4.73;;
11671;SDS011;5892;43.412;24.612;2023-03-19T12:19:32;7.87;;;5.20;;
11671;SDS011;5892;43.412;24.612;2023-03-19T12:22:12;6.03;;;3.80;;
11671;SDS011;5892;43.412;24.612;2023-03-19T12:24:55;6.50;;;4.13;;
11671;SDS011;5892;43.412;24.612;2023-03-19T12:27:36;4.60;;;4.20;;
11671;SDS011;5892;43.412;24.612;2023-03-19T12:30:11;5.30;;;4.47;;
11671;SDS011;5892;43.412;24.612;2023-03-19T12:32:50;6.83;;;4.47;;
11671;SDS011;5892;43.412;24.612;2023-03-19T12:35:30;7.63;;;4.47;;
11671;SDS011;5892;43.412;24.612;2023-03-19T12:38:01;6.07;;;4.40;;
11671;SDS011;5892;43.412;24.612;2023-03-19T12:40:33;8.07;;;4.73;;
11671;SDS011;5892;43.412;24.612;2023-03-19T12:43:04;5.50;;;4.47;;
11671;SDS011;5892;43.412;24.612;2023-03-19T12:45:41;5.87;;;4.20;;
11671;SDS011;5892;43.412;24.612;2023-03-19T12:48:12;5.10;;;4.37;;
11671;SDS011;5892;43.412;24.612;2023-03-19T12:50:45;4.80;;;4.00;;
11671;SDS011;5892;43.412;24.612;2023-03-19T12:53:18;4.90;;;4.40;;
11671;SDS011;5892;43.412;24.612;2023-03-19T12:55:56;4.77;;;3.90;;
11671;SDS011;5892;43.412;24.612;2023-03-19T12:58:28;5.50;;;4.03;;
11671;SDS011;5892;43.412;24.612;2023-03-19T13:01:05;4.93;;;3.87;;
11671;SDS011;5892;43.412;24.612;2023-03-19T13:03:38;5.40;;;4.20;;
11671;SDS011;5892;43.412;24.612;2023-03-19T13:06:13;8.53;;;4.40;;
11671;SDS011;5892;43.412;24.612;2023-03-19T13:08:46;4.60;;;4.10;;
11671;SDS011;5892;43.412;24.612;2023-03-19T13:11:20;5.40;;;4.03;;
11671;SDS011;5892;43.412;24.612;2023-03-19T13:14:00;4.77;;;4.10;;
11671;SDS011;5892;43.412;24.612;2023-03-19T13:19:26;4.80;;;3.80;;
11671;SDS011;5892;43.412;24.612;2023-03-19T13:22:02;6.17;;;4.40;;
11671;SDS011;5892;43.412;24.612;2023-03-19T13:24:37;4.50;;;3.77;;
11671;SDS011;5892;43.412;24.612;2023-03-19T13:27:09;6.13;;;4.10;;
11671;SDS011;5892;43.412;24.612;2023-03-19T13:29:50;4.60;;;3.80;;
11671;SDS011;5892;43.412;24.612;2023-03-19T13:32:22;5.43;;;4.03;;
11671;SDS011;5892;43.412;24.612;2023-03-19T13:35:00;5.23;;;3.90;;
11671;SDS011;5892;43.412;24.612;2023-03-19T13:38:16;4.63;;;3.63;;
11671;SDS011;5892;43.412;24.612;2023-03-19T13:40:50;4.00;;;3.60;;
11671;SDS011;5892;43.412;24.612;2023-03-19T13:46:34;4.53;;;3.53;;
11671;SDS011;5892;43.412;24.612;2023-03-19T13:57:58;6.93;;;4.83;;
11671;SDS011;5892;43.412;24.612;2023-03-19T14:00:57;5.83;;;3.97;;
11671;SDS011;5892;43.412;24.612;2023-03-19T14:03:27;6.43;;;4.63;;
11671;SDS011;5892;43.412;24.612;2023-03-19T14:05:57;3.83;;;3.33;;
11671;SDS011;5892;43.412;24.612;2023-03-19T14:08:26;10.67;;;6.47;;
11671;SDS011;5892;43.412;24.612;2023-03-19T14:10:58;4.30;;;3.30;;
11671;SDS011;5892;43.412;24.612;2023-03-19T14:13:29;3.53;;;3.13;;
11671;SDS011;5892;43.412;24.612;2023-03-19T14:16:03;3.83;;;2.97;;
11671;SDS011;5892;43.412;24.612;2023-03-19T14:18:38;4.47;;;3.60;;
11671;SDS011;5892;43.412;24.612;2023-03-19T14:21:09;3.43;;;3.13;;
11671;SDS011;5892;43.412;24.612;2023-03-19T14:23:39;3.67;;;3.00;;
11671;SDS011;5892;43.412;24.612;2023-03-19T14:26:18;3.90;;;3.03;;
11671;SDS011;5892;43.412;24.612;2023-03-19T14:28:51;3.20;;;2.90;;
11671;SDS011;5892;43.412;24.612;2023-03-19T14:31:28;4.20;;;3.40;;
11671;SDS011;5892;43.412;24.612;2023-03-19T14:34:06;4.97;;;3.70;;
11671;SDS011;5892;43.412;24.612;2023-03-19T14:36:45;4.63;;;3.20;;
11671;SDS011;5892;43.412;24.612;2023-03-19T14:39:19;3.83;;;3.20;;
11671;SDS011;5892;43.412;24.612;2023-03-19T14:41:53;5.20;;;3.00;;
11671;SDS011;5892;43.412;24.612;2023-03-19T14:44:38;9.87;;;3.20;;
11671;SDS011;5892;43.412;24.612;2023-03-19T14:47:35;3.53;;;2.90;;
11671;SDS011;5892;43.412;24.612;2023-03-19T14:53:09;5.40;;;3.43;;
11671;SDS011;5892;43.412;24.612;2023-03-19T14:55:41;3.70;;;2.90;;
11671;SDS011;5892;43.412;24.612;2023-03-19T14:58:10;3.47;;;3.03;;
11671;SDS011;5892;43.412;24.612;2023-03-19T15:00:42;3.33;;;2.80;;
11671;SDS011;5892;43.412;24.612;2023-03-19T15:03:18;4.77;;;3.00;;
11671;SDS011;5892;43.412;24.612;2023-03-19T15:05:48;5.90;;;3.60;;
11671;SDS011;5892;43.412;24.612;2023-03-19T15:08:22;6.97;;;4.50;;
11671;SDS011;5892;43.412;24.612;2023-03-19T15:10:58;3.37;;;2.80;;
11671;SDS011;5892;43.412;24.612;2023-03-19T15:13:48;4.17;;;2.90;;
11671;SDS011;5892;43.412;24.612;2023-03-19T15:16:37;4.43;;;3.10;;
11671;SDS011;5892;43.412;24.612;2023-03-19T15:19:12;3.57;;;2.80;;
11671;SDS011;5892;43.412;24.612;2023-03-19T15:21:48;3.70;;;3.30;;
11671;SDS011;5892;43.412;24.612;2023-03-19T15:24:16;3.17;;;2.83;;
11671;SDS011;5892;43.412;24.612;2023-03-19T15:26:44;4.13;;;3.50;;
11671;SDS011;5892;43.412;24.612;2023-03-19T15:29:14;5.23;;;4.27;;